WetterOnline ( http://www.wetteronline.de )

Wetter aktuell Friedberg

Aktuelles Wetter: Kleiner Feldberg (802m)

6-stündlich | Neueste Meldungen
Ortszeit Temperatur Wetter
Sa, 24.02. 13:00 -3.6° C leicht bewölkt
Sa, 24.02. 7:00 -8.4° C wolkenlos
Sa, 24.02. 1:00 -9.2° C wolkenlos
Fr, 23.02. 19:00 -6.6° C wolkenlos
Fr, 23.02. 13:00 -5.5° C wolkenlos
Fr, 23.02. 7:00 -9.1° C wolkenlos
Fr, 23.02. 1:00 -7.3° C wolkenlos
Do, 22.02. 19:00 -5.8° C wolkenlos
Ortszeit Temperatur Wetter
Sa, 24.02. 13:00 -3.6° C leicht bewölkt
Sa, 24.02. 12:40 -3.9° C fast wolkenlos
Sa, 24.02. 12:30 -3.9° C fast wolkenlos
Sa, 24.02. 12:20 -3.9° C fast wolkenlos
Sa, 24.02. 12:10 -3.7° C fast wolkenlos
Sa, 24.02. 12:00 -4.1° C wolkenlos
Sa, 24.02. 11:50 -4.1° C wolkenlos
Sa, 24.02. 11:30 -4.6° C wolkenlos
Sa, 24.02. 11:00 -5.3° C wolkenlos
Sa, 24.02. 10:30 -5.6° C wolkenlos
Sa, 24.02. 10:00 -6.0° C wolkenlos
Ortszeit Relative Feuchte Sichtweite
Sa, 24.02. 13:00 50% 6 km
Sa, 24.02. 7:00 47% 21 km
Sa, 24.02. 1:00 67% 13 km
Fr, 23.02. 19:00 57% 17 km
Fr, 23.02. 13:00 56% 6 km
Fr, 23.02. 7:00 71% 21 km
Fr, 23.02. 1:00 71% 22 km
Do, 22.02. 19:00 67% 28 km
Ortszeit Relative Feuchte Sichtweite
Sa, 24.02. 13:00 50% 6 km
Sa, 24.02. 12:40 49% -
Sa, 24.02. 12:30 50% 5.0 km
Sa, 24.02. 12:20 50% -
Sa, 24.02. 12:10 50% -
Sa, 24.02. 12:00 50% 6 km
Sa, 24.02. 11:50 50% -
Sa, 24.02. 11:30 50% 14 km
Sa, 24.02. 11:00 49% 9 km
Sa, 24.02. 10:30 49% 15 km
Sa, 24.02. 10:00 47% 10 km
Ortszeit Niederschlagsmenge Niederschlagsart
Sa, 24.02. 13:00 0.0 l/m2 in 6 Std. -
Sa, 24.02. 7:00 0.0 l/m2 in 12 Std. -
Sa, 24.02. 1:00 0.0 l/m2 in 6 Std. -
Fr, 23.02. 19:00 0.0 l/m2 in 12 Std. -
Fr, 23.02. 13:00 0.0 l/m2 in 6 Std. -
Fr, 23.02. 7:00 0.0 l/m2 in 12 Std. -
Fr, 23.02. 1:00 0.0 l/m2 in 6 Std. -
Do, 22.02. 19:00 0.0 l/m2 in 12 Std. -
Ortszeit Niederschlagsmenge Niederschlagsart
Sa, 24.02. 13:00 0.0 l/m2 in 1 Std. -
Sa, 24.02. 12:40 keine Meldung -
Sa, 24.02. 12:30 0.0 l/m2 in 1 Std. -
Sa, 24.02. 12:20 keine Meldung -
Sa, 24.02. 12:10 keine Meldung -
Sa, 24.02. 12:00 0.0 l/m2 in 1 Std. -
Sa, 24.02. 11:50 keine Meldung -
Sa, 24.02. 11:30 0.0 l/m2 in 1 Std. -
Sa, 24.02. 11:00 0.0 l/m2 in 1 Std. -
Sa, 24.02. 10:30 0.0 l/m2 in 1 Std. -
Sa, 24.02. 10:00 0.0 l/m2 in 1 Std. -
Ortszeit Stärke Spitze Richtung
km/h Bft. km/h Grad Sektor
Sa, 24.02. 13:00 31 5 63 60° NO
Sa, 24.02. 7:00 39 6 67 80° O
Sa, 24.02. 1:00 31 5 56 70° O
Fr, 23.02. 19:00 29 5 50 40° NO
Fr, 23.02. 13:00 26 4 57 50° NO
Fr, 23.02. 7:00 31 5 54 60° NO
Fr, 23.02. 1:00 22 4 54 50° NO
Do, 22.02. 19:00 30 5 59 50° NO
Ortszeit Stärke Spitze Richtung
km/h Bft. km/h Grad Sektor
Sa, 24.02. 13:00 31 5 59 60° NO
Sa, 24.02. 12:40 31 5 - 60° NO
Sa, 24.02. 12:30 31 5 59 60° NO
Sa, 24.02. 12:20 31 5 - 60° NO
Sa, 24.02. 12:10 31 5 - 60° NO
Sa, 24.02. 12:00 32 5 54 60° NO
Sa, 24.02. 11:50 32 5 - 60° NO
Sa, 24.02. 11:30 31 5 56 70° O
Sa, 24.02. 11:00 32 5 58 70° O
Sa, 24.02. 10:30 32 5 58 80° O
Sa, 24.02. 10:00 35 5 61 70° O
Ortszeit Untergrenze Bedeckung Gattung
total tief tief mittel hoch
Sa, 24.02. 13:00 8400 m 3/8 0/8 - - -
Sa, 24.02. 7:00 - 0/8 0/8 - - -
Sa, 24.02. 1:00 - 0/8 0/8 - - -
Fr, 23.02. 19:00 - 0/8 0/8 - - -
Fr, 23.02. 13:00 - 0/8 0/8 - - -
Fr, 23.02. 7:00 - 0/8 0/8 - - -
Fr, 23.02. 1:00 - 0/8 0/8 - - -
Do, 22.02. 19:00 - 0/8 0/8 - - -
Ortszeit Bedeckungsgrad in Achtel und Wolkenuntergrenze
Sa, 24.02. 13:00 3(8400m)
Sa, 24.02. 12:40 2(8400m)
Sa, 24.02. 12:30 1(8400m)
Sa, 24.02. 12:20 1(8400m)
Sa, 24.02. 12:10 1(8400m)
Sa, 24.02. 12:00 2(8400m)
Sa, 24.02. 11:50 keine Wolken
Sa, 24.02. 11:30 keine Wolken
Sa, 24.02. 11:00 keine Wolken
Sa, 24.02. 10:30 keine Wolken
Sa, 24.02. 10:00 keine Wolken
Ortszeit Stationsdruck (hPa) Tendenz (hPa in 3 Std.)
Sa, 24.02. 13:00 922 + 0,3
Sa, 24.02. 7:00 920 + 1,1
Sa, 24.02. 1:00 920 - 0,2
Fr, 23.02. 19:00 919 + 0,1
Fr, 23.02. 13:00 919 + 0,5
Fr, 23.02. 7:00 919 - 0,2
Fr, 23.02. 1:00 920 - 0,3
Do, 22.02. 19:00 920 + 0,3
Ortszeit Stationsdruck (hPa) Tendenz (hPa in 3 Std.)
Sa, 24.02. 13:00 922 + 0,3
Sa, 24.02. 12:40 922 keine Meldung
Sa, 24.02. 12:30 922 + 0,6
Sa, 24.02. 12:20 922 keine Meldung
Sa, 24.02. 12:10 922 keine Meldung
Sa, 24.02. 12:00 922 + 0,6
Sa, 24.02. 11:50 922 keine Meldung
Sa, 24.02. 11:30 922 + 0,9
Sa, 24.02. 11:00 922 + 1,5
Sa, 24.02. 10:30 922 + 1,3
Sa, 24.02. 10:00 922 + 1,7
Ortszeit Schneehöhe (cm)
Sa, 24.02. 13:00 13
Sa, 24.02. 7:00 12
Sa, 24.02. 1:00 12
Fr, 23.02. 19:00 12
Fr, 23.02. 13:00 13
Fr, 23.02. 7:00 13
Fr, 23.02. 1:00 13
Do, 22.02. 19:00 13
Ortszeit Schneehöhe (cm)
Sa, 24.02. 13:00 13
Sa, 24.02. 12:40 13
Sa, 24.02. 12:30 13
Sa, 24.02. 12:20 13
Sa, 24.02. 12:10 13
Sa, 24.02. 12:00 13
Sa, 24.02. 11:50 13
Sa, 24.02. 11:30 13
Sa, 24.02. 11:00 13
Sa, 24.02. 10:30 13
Sa, 24.02. 10:00 13
Link zu dieser Seite / Seite empfehlen

Das Wetter in ...